Terminal Aerodrome Forecast
Issued by NWS Flagstaff, AZ

Home | Current Version | Previous Version | Text Only | Print | Product List | Glossary On
Versions: 1 2 3 4 5 6 7 8 9 10 11 12 13 14 15 16 17 18
000
FTUS45 KFGZ 041140
TAFINW
TAF
KINW 041140Z 0412/0512 VRB05KT P6SM SCT090 BKN120
     FM042000 24008KT P6SM SCT060 BKN100 PROB30 0421/0424 VRB15G30KT
      TSRA BKN060CB
     FM050300 VRB06KT P6SM FEW060 SCT110=

USA.gov is the U.S. government's official web portal to all federal, state and local government web resources and services.